Carimona, Minnesota
Current Conditions -  °F | °C
As of 10:56 AM on Friday 28 Nov 2014 (Local Time) from KFKA Reporting Station
Clear Clear  
Wind Chill:   Ceiling: Unl
Heat Index: 19°   Visibility: 10mi
Dew Point: 13°   Wind: 15mph
Humidity: 77%   Direction: 160°SSE
Pressure: 29.96"   Gusts: NA
Location:  43.6343°N, 92.1426°W
Report Text: KFKA 281656Z AUTO 16013KT 10SM CLR M07/M11 A2996 RMK AO2 T10741108
Loading
Personal Weather Stations






























Interactive Weather Map New forecast layout! Learn more

10-Day Weather Forecast

Advertisements
Track Severe Weather on mobile